Caramat, Canada
Current Conditions -  °F | °C
As of 3:00 AM on Monday 26 Jan 2015 (Local Time) from CYGQ Reporting Station
Broken Clouds Broken Clouds  
Wind Chill: -6°   Ceiling: 22000
Heat Index: -6°   Visibility: 15mi
Dew Point: -11°   Wind: 2mph
Humidity: 77%   Direction: 80°E
Pressure: 29.86"   Gusts: NA
Location:  49.62°N, 86.15°W
Report Text: CYGQ 260800Z 08002KT 15SM SCT040 BKN220 M21/M24 A2986 RMKSC3CI2 SLP152
Loading
Personal Weather Stations






























Interactive Weather Map New forecast layout! Learn more

10-Day Weather Forecast

Advertisements
Track Severe Weather on mobile